createdAt,value
2023-09-18T00:03:03.440Z,11
2023-09-18T00:13:09.452Z,11
2023-09-18T00:23:15.572Z,11
2023-09-18T00:33:21.579Z,11
2023-09-18T00:43:27.565Z,11
2023-09-18T00:53:33.711Z,11
2023-09-18T01:03:39.711Z,11
2023-09-18T01:13:45.722Z,11
2023-09-18T01:23:51.784Z,11
2023-09-18T01:33:58.176Z,11
2023-09-18T01:44:03.897Z,10.9
2023-09-18T01:54:09.915Z,10.9
2023-09-18T02:04:44.683Z,10.9
2023-09-18T02:14:22.015Z,10.9
2023-09-18T02:24:28.037Z,10.9
2023-09-18T02:34:34.082Z,10.9
2023-09-18T02:44:40.105Z,10.9
2023-09-18T02:54:46.153Z,10.9
2023-09-18T03:04:52.211Z,10.9
2023-09-18T03:14:58.264Z,10.9
2023-09-18T03:25:04.306Z,10.9
2023-09-18T03:35:10.317Z,10.9
2023-09-18T03:45:16.346Z,10.9
2023-09-18T03:55:22.391Z,10.3
2023-09-18T04:05:28.518Z,10
2023-09-18T04:15:34.491Z,10.1
2023-09-18T04:25:40.577Z,9.8
2023-09-18T04:35:46.672Z,9.7
2023-09-18T04:45:53.809Z,9.8
2023-09-18T04:55:59.808Z,9.4
2023-09-18T05:06:05.946Z,9.3
2023-09-18T05:16:11.918Z,9
2023-09-18T05:26:18.047Z,8.7
2023-09-18T05:36:23.966Z,9
2023-09-18T05:46:30.038Z,9
2023-09-18T05:56:36.084Z,9
2023-09-18T06:06:42.088Z,8.8
2023-09-18T06:16:48.220Z,8.7
2023-09-18T06:26:54.190Z,8.5
2023-09-18T06:37:00.247Z,8.7
2023-09-18T06:47:06.307Z,8.7
2023-09-18T06:57:12.330Z,8.5
2023-09-18T07:07:18.364Z,8.5
2023-09-18T07:17:24.438Z,8.7
2023-09-18T07:27:30.447Z,8.8
2023-09-18T07:37:36.658Z,8.8
2023-09-18T07:47:42.686Z,8.8
2023-09-18T07:57:48.602Z,8.7
2023-09-18T08:07:54.619Z,8.7
2023-09-18T08:18:00.851Z,8.8
2023-09-18T08:28:09.522Z,8.7
2023-09-18T08:38:12.761Z,8.7
2023-09-18T08:48:18.859Z,8.8
2023-09-18T08:58:24.844Z,9.1
2023-09-18T09:08:30.909Z,9.3
2023-09-18T09:18:36.907Z,9.2
2023-09-18T09:28:42.957Z,9.4
2023-09-18T09:38:49.089Z,9.3
2023-09-18T09:48:55.058Z,9.3
2023-09-18T09:59:01.132Z,9.5
2023-09-18T10:09:07.179Z,9.3
2023-09-18T10:19:13.181Z,9.3
2023-09-18T10:29:19.267Z,9.6
2023-09-18T10:39:25.371Z,10
2023-09-18T10:49:31.360Z,10.3
2023-09-18T10:59:37.384Z,10.5
2023-09-18T11:09:43.412Z,10.5
2023-09-18T11:19:49.433Z,10.2
2023-09-18T11:29:55.532Z,10.4
2023-09-18T11:40:01.552Z,10.7
2023-09-18T11:50:08.220Z,11
2023-09-18T12:00:13.651Z,11.2
2023-09-18T12:10:19.683Z,11.5
2023-09-18T12:20:25.729Z,10.7
2023-09-18T12:30:31.743Z,11
2023-09-18T12:40:37.782Z,11
2023-09-18T12:50:43.867Z,11.3
2023-09-18T13:00:49.899Z,11.5
2023-09-18T13:10:55.938Z,11.8
2023-09-18T13:21:03.169Z,12
2023-09-18T13:31:09.127Z,12.1
2023-09-18T13:41:15.168Z,12
2023-09-18T13:51:21.215Z,11.8
2023-09-18T14:01:27.301Z,11.6
2023-09-18T14:11:33.324Z,11.6
2023-09-18T14:21:39.346Z,11.6
2023-09-18T14:31:45.389Z,11.6
2023-09-18T14:41:51.527Z,11.8
2023-09-18T14:51:57.472Z,11.6
2023-09-18T15:02:03.664Z,11.6
2023-09-18T15:12:09.579Z,11.6
2023-09-18T15:22:15.611Z,11.6
2023-09-18T15:32:21.767Z,11.6
2023-09-18T15:42:27.707Z,11.6
2023-09-18T15:52:33.743Z,11.4
2023-09-18T16:22:51.866Z,11.4
2023-09-18T16:43:03.982Z,11.4
2023-09-18T16:53:09.988Z,11.4
2023-09-18T17:03:16.146Z,11.4
2023-09-18T17:13:22.080Z,11.4
2023-09-18T17:23:28.213Z,11.4
2023-09-18T17:33:34.293Z,11.4
2023-09-18T17:43:40.541Z,11.3
2023-09-18T17:53:46.272Z,11.3
2023-09-18T18:03:52.717Z,11.3
2023-09-18T18:13:58.365Z,11.3
2023-09-18T18:24:04.503Z,11.2
2023-09-18T18:34:10.436Z,11.2
2023-09-18T18:44:16.482Z,11.2
2023-09-18T18:54:22.559Z,11.1
2023-09-18T19:04:28.659Z,11.1
2023-09-18T19:14:34.680Z,11.1
2023-09-18T19:24:40.655Z,10.9
2023-09-18T19:34:46.702Z,10.9
2023-09-18T19:44:52.779Z,10.9
2023-09-18T19:54:58.818Z,10.9
2023-09-18T20:05:04.852Z,10.9
2023-09-18T20:25:16.911Z,10.9
2023-09-18T20:35:22.967Z,10.9
2023-09-18T20:45:29.014Z,10.9
2023-09-18T20:55:35.062Z,10.9
2023-09-18T21:05:41.157Z,10.9
2023-09-18T21:15:47.140Z,10.7
2023-09-18T21:25:53.186Z,10.7
2023-09-18T21:35:59.268Z,10.7
2023-09-18T21:46:05.331Z,10.7
2023-09-18T21:56:11.311Z,10.7
2023-09-18T22:06:17.375Z,10.7
2023-09-18T22:16:23.540Z,10.7
2023-09-18T22:26:29.439Z,10.7
2023-09-18T22:36:35.510Z,10.7
2023-09-18T22:46:41.599Z,10.7
2023-09-18T23:06:53.611Z,10.7
2023-09-18T23:16:59.749Z,10.9
2023-09-18T23:27:05.728Z,10.9
2023-09-18T23:37:11.774Z,10.9
2023-09-18T23:47:17.823Z,10.9
2023-09-18T23:57:23.825Z,11
